Time;durP1;ratioP1;P1;durP2;ratioP2;P2;SDS_P1;SDS_P2;PMS_P1;PMS_P2;Temp;Humidity;BMP_temperature;BMP_pressure;BME280_temperature;BME280_humidity;BME280_pressure;Samples;Min_cycle;Max_cycle;Signal;HPM_P1;HPM_P2
2021/12/19 00:13:45;;;;;;;62.53;21.20;;;;;;;-0.28;100.00;97101.69;5828118;24;20178;-85
2021/12/19 00:26:59;;;;;;;160.33;25.13;;;;;;;-0.28;100.00;97094.03;5791840;24;20205;-85
2021/12/19 00:30:16;;;;;;;268.63;29.87;;;;;;;-0.36;100.00;97089.16;5815236;24;20169;-83
2021/12/19 00:37:11;;;;;;;;;;;;;;;;;;;;;
2021/12/19 00:40:36;;;;;;;;;;;;;;;;;;;;;
2021/12/19 00:50:34;;;;;;;76.60;19.17;;;;;;;-0.26;100.00;97048.06;5738954;24;20242;-85
2021/12/19 00:53:44;;;;;;;;;;;;;;;;;;;;;
2021/12/19 01:00:53;;;;;;;;;;;;;;;;;;;;;
2021/12/19 01:18:44;;;;;;;;;;;;;;;;;;;;;
2021/12/19 01:24:57;;;;;;;53.67;16.30;;;;;;;-0.43;100.00;97043.47;5899641;24;20188;-84
2021/12/19 01:28:17;;;;;;;95.37;20.73;;;;;;;-0.45;100.00;97040.09;5830781;24;20180;-85
2021/12/19 01:32:03;;;;;;;;;;;;;;;;;;;;;
2021/12/19 01:34:46;;;;;;;105.53;17.27;;;;;;;-0.64;100.00;97035.50;6018164;23;20267;-84
2021/12/19 01:38:04;;;;;;;;;;;;;;;;;;;;;
2021/12/19 01:41:51;;;;;;;162.57;18.73;;;;;;;-0.62;100.00;97032.91;6016906;23;20247;-83
2021/12/19 01:44:48;;;;;;;309.83;25.33;;;;;;;-0.83;100.00;97036.91;6041505;23;20189;-84
2021/12/19 01:47:49;;;;;;;153.70;21.30;;;;;;;-0.73;100.00;97038.31;6007426;23;20634;-84
2021/12/19 01:55:06;;;;;;;146.00;20.60;;;;;;;-0.64;100.00;97047.44;6016701;23;20175;-85
2021/12/19 01:58:42;;;;;;;218.30;21.27;;;;;;;-0.67;100.00;97043.25;5957955;24;20167;-85
2021/12/19 02:02:03;;;;;;;156.57;20.57;;;;;;;-0.68;100.00;97041.59;5897846;24;20198;-83
2021/12/19 02:08:55;;;;;;;;;;;;;;;;;;;;;
2021/12/19 02:15:21;;;;;;;;;;;;;;;;;;;;;
2021/12/19 02:18:23;;;;;;;;;;;;;;;;;;;;;
2021/12/19 02:21:20;;;;;;;142.07;18.47;;;;;;;-0.76;100.00;97050.34;6063283;23;20176;-85
2021/12/19 02:23:56;;;;;;;120.20;19.40;;;;;;;-0.66;100.00;97044.09;5966056;23;20169;-85
2021/12/19 02:27:01;;;;;;;107.53;17.43;;;;;;;-0.65;100.00;97036.41;5967857;23;20767;-86
2021/12/19 02:29:57;;;;;;;226.90;22.17;;;;;;;-0.61;100.00;97026.97;6010951;23;20567;-84
2021/12/19 02:51:23;;;;;;;;;;;;;;;;;;;;;
2021/12/19 02:54:38;;;;;;;;;;;;;;;;;;;;;
2021/12/19 03:04:28;;;;;;;;;;;;;;;;;;;;;
2021/12/19 03:22:23;;;;;;;197.33;20.27;;;;;;;-0.87;100.00;96980.06;5797220;24;20194;-85
2021/12/19 03:25:28;;;;;;;;;;;;;;;;;;;;;
2021/12/19 03:28:48;;;;;;;;;;;;;;;;;;;;;
2021/12/19 03:32:06;;;;;;;50.57;12.50;;;;;;;-0.89;100.00;96973.31;5712238;25;20252;-83
2021/12/19 03:35:37;;;;;;;;;;;;;;;;;;;;;
2021/12/19 03:38:40;;;;;;;412.20;33.23;;;;;;;-1.01;100.00;96961.75;5708546;24;20187;-85
2021/12/19 03:45:25;;;;;;;;;;;;;;;;;;;;;
2021/12/19 03:48:48;;;;;;;84.00;11.67;;;;;;;-0.92;100.00;96953.84;5821484;24;20684;-83
2021/12/19 03:51:33;;;;;;;428.83;30.60;;;;;;;-0.91;100.00;96960.59;5914870;24;20186;-84
2021/12/19 04:11:18;;;;;;;296.30;18.63;;;;;;;-0.91;100.00;96955.50;5870280;24;20291;-84
2021/12/19 04:14:24;;;;;;;343.37;21.07;;;;;;;-0.91;100.00;96947.84;5864324;24;20167;-82
2021/12/19 04:16:57;;;;;;;70.30;10.53;;;;;;;-0.94;100.00;96945.41;5892507;24;20172;-86
2021/12/19 04:19:54;;;;;;;;;;;;;;;;;;;;;
2021/12/19 04:23:15;;;;;;;75.60;9.70;;;;;;;-0.84;100.00;96934.94;5812171;24;20315;-85
2021/12/19 04:26:31;;;;;;;;;;;;;;;;;;;;;
2021/12/19 04:29:50;;;;;;;;;;;;;;;;;;;;;
2021/12/19 04:36:20;;;;;;;114.20;10.87;;;;;;;-0.87;100.00;96923.97;5924763;24;20278;-84
2021/12/19 04:39:19;;;;;;;324.27;19.50;;;;;;;-0.98;100.00;96914.91;5960790;24;20170;-85
2021/12/19 05:03:28;;;;;;;;;;;;;;;;;;;;;
2021/12/19 05:16:52;;;;;;;;;;;;;;;;;;;;;
2021/12/19 05:30:29;;;;;;;;;;;;;;;;;;;;;
2021/12/19 06:04:49;;;;;;;74.53;8.67;;;;;;;-0.57;100.00;96903.50;5664825;25;20213;-85
2021/12/19 06:08:15;;;;;;;195.37;11.97;;;;;;;-0.58;100.00;96899.28;5704554;25;20271;-85
2021/12/19 06:11:38;;;;;;;270.13;15.63;;;;;;;-0.63;100.00;96896.03;5716509;24;20519;-85
2021/12/19 06:28:07;;;;;;;160.17;11.47;;;;;;;-0.69;100.00;96858.81;6036310;23;20181;-85
2021/12/19 06:31:13;;;;;;;139.17;10.27;;;;;;;-0.69;100.00;96860.50;6035896;23;20180;-85
2021/12/19 06:34:22;;;;;;;58.73;7.80;;;;;;;-0.75;100.00;96850.50;6059091;23;20165;-84
2021/12/19 06:40:57;;;;;;;131.17;10.60;;;;;;;-0.79;100.00;96848.94;5998500;23;20165;-85
2021/12/19 07:01:21;;;;;;;138.87;9.70;;;;;;;-0.79;100.00;96852.31;5925500;24;20226;-83
2021/12/19 07:04:24;;;;;;;172.73;10.37;;;;;;;-0.77;100.00;96858.19;5870114;24;20180;-85
2021/12/19 07:11:31;;;;;;;101.33;8.00;;;;;;;-0.77;100.00;96847.16;5870296;24;20214;-83
2021/12/19 07:13:56;;;;;;;122.33;9.30;;;;;;;-0.83;100.00;96848.16;5763286;24;20174;-80
2021/12/19 07:16:32;;;;;;;125.90;8.53;;;;;;;-0.87;100.00;96851.72;5742365;24;20689;-85
2021/12/19 07:22:53;;;;;;;194.90;12.97;;;;;;;-0.89;100.00;96861.94;5739507;24;20589;-84
2021/12/19 07:25:21;;;;;;;293.93;19.33;;;;;;;-0.91;100.00;96852.66;5740762;24;20254;-82
2021/12/19 07:27:55;;;;;;;39.97;5.57;;;;;;;-0.75;100.00;96860.69;5642312;24;20257;-81
2021/12/19 07:30:25;;;;;;;24.83;5.17;;;;;;;-0.67;100.00;96858.75;5661372;25;20181;-83
2021/12/19 07:32:51;;;;;;;101.70;8.83;;;;;;;-0.81;100.00;96861.72;5681665;24;20175;-79
2021/12/19 07:35:26;;;;;;;61.67;6.50;;;;;;;-0.74;100.00;96858.09;5845315;24;20272;-81
2021/12/19 07:37:54;;;;;;;105.63;11.80;;;;;;;-0.71;100.00;96860.53;5779666;24;20516;-82
2021/12/19 07:40:23;;;;;;;284.50;16.97;;;;;;;-0.79;100.00;96864.22;5845759;24;20633;-81
2021/12/19 07:42:52;;;;;;;255.97;15.13;;;;;;;-0.82;100.00;96870.25;5893323;24;20299;-81
2021/12/19 07:45:20;;;;;;;60.80;6.73;;;;;;;-0.82;100.00;96869.41;5892916;24;20587;-83
2021/12/19 07:47:46;;;;;;;185.37;12.77;;;;;;;-0.80;100.00;96865.09;5895781;23;20167;-82
2021/12/19 07:50:13;;;;;;;40.07;6.43;;;;;;;-0.71;100.00;96854.59;5951997;23;20797;-82
2021/12/19 07:52:44;;;;;;;83.57;32.83;;;;;;;-0.65;100.00;96852.69;5980645;23;20161;-81
2021/12/19 07:55:10;;;;;;;83.23;20.60;;;;;;;-0.63;100.00;96852.66;5981608;23;20209;-83
2021/12/19 07:57:36;;;;;;;82.50;9.57;;;;;;;-0.64;100.00;96851.81;6004932;23;20162;-81
2021/12/19 08:00:05;;;;;;;205.20;11.57;;;;;;;-0.63;100.00;96860.31;6004617;23;20563;-82
2021/12/19 08:02:34;;;;;;;60.00;7.37;;;;;;;-0.56;100.00;96856.69;6004478;23;20236;-82
2021/12/19 08:04:59;;;;;;;90.87;11.50;;;;;;;-0.57;100.00;96848.19;6004463;23;20185;-82
2021/12/19 08:07:24;;;;;;;123.13;10.17;;;;;;;-0.56;100.00;96838.81;5981280;23;20173;-82
2021/12/19 08:12:34;;;;;;;46.87;6.50;;;;;;;-0.51;100.00;96852.28;6004173;23;20155;-81
2021/12/19 08:15:19;;;;;;;23.53;5.20;;;;;;;-0.49;100.00;96847.97;6005252;23;20185;-80
2021/12/19 08:18:21;;;;;;;69.40;7.67;;;;;;;-0.53;100.00;96848.09;5980553;23;20487;-81
2021/12/19 08:21:17;;;;;;;37.97;4.93;;;;;;;-0.45;100.00;96852.06;6004039;23;20153;-81
2021/12/19 08:24:09;;;;;;;68.40;5.50;;;;;;;-0.48;100.00;96848.78;5983076;23;20158;-82
2021/12/19 08:26:35;;;;;;;127.93;8.60;;;;;;;-0.52;100.00;96844.69;6026955;23;20181;-77
2021/12/19 08:29:01;;;;;;;150.83;9.90;;;;;;;-0.54;100.00;96833.66;6005208;23;20234;-78
2021/12/19 08:31:26;;;;;;;96.97;7.20;;;;;;;-0.57;100.00;96824.41;6005536;23;20565;-82
2021/12/19 08:33:52;;;;;;;56.63;5.53;;;;;;;-0.52;100.00;96826.81;6004845;23;20210;-81
2021/12/19 08:36:17;;;;;;;79.00;8.40;;;;;;;-0.54;100.00;96819.19;5981002;23;20231;-82
2021/12/19 08:38:42;;;;;;;56.40;7.23;;;;;;;-0.46;100.00;96819.78;6005544;23;20249;-81
2021/12/19 08:41:08;;;;;;;51.17;7.30;;;;;;;-0.40;100.00;96821.31;6005954;23;20298;-81
2021/12/19 08:43:33;;;;;;;134.57;9.73;;;;;;;-0.46;100.00;96837.66;5988170;23;20269;-79
2021/12/19 08:45:58;;;;;;;191.57;10.73;;;;;;;-0.55;100.00;96837.94;5980159;23;20189;-81
2021/12/19 08:48:24;;;;;;;28.43;5.50;;;;;;;-0.38;100.00;96833.13;6003770;23;20171;-82
2021/12/19 08:50:51;;;;;;;27.07;4.67;;;;;;;-0.31;100.00;96826.13;6003912;23;20189;-80
2021/12/19 08:53:17;;;;;;;26.40;4.93;;;;;;;-0.28;100.00;96819.19;5979465;23;20162;-81
2021/12/19 08:55:43;;;;;;;121.17;10.20;;;;;;;-0.30;100.00;96826.06;5981344;23;20209;-81
2021/12/19 08:58:08;;;;;;;29.80;5.03;;;;;;;-0.20;100.00;96829.13;6005459;23;20158;-82
2021/12/19 09:00:33;;;;;;;41.70;5.67;;;;;;;-0.20;100.00;96813.81;5982330;23;20173;-83
2021/12/19 09:02:59;;;;;;;19.63;6.60;;;;;;;-0.10;100.00;96815.16;6005312;23;20182;-83
2021/12/19 09:05:26;;;;;;;66.33;12.20;;;;;;;-0.10;100.00;96820.28;6004934;23;20182;-82
2021/12/19 09:07:52;;;;;;;98.70;8.13;;;;;;;-0.23;100.00;96825.88;6004405;23;20182;-81
2021/12/19 09:10:18;;;;;;;185.90;11.97;;;;;;;-0.47;100.00;96819.84;6004302;23;20165;-84
2021/12/19 09:12:44;;;;;;;155.47;9.40;;;;;;;-0.42;100.00;96813.72;6004255;23;20652;-82
2021/12/19 09:15:09;;;;;;;22.43;4.73;;;;;;;-0.21;100.00;96803.66;5981494;23;20284;-83
2021/12/19 09:17:35;;;;;;;23.97;6.80;;;;;;;-0.13;100.00;96801.69;5980494;23;20248;-82
2021/12/19 09:20:00;;;;;;;271.60;21.23;;;;;;;-0.23;100.00;96810.56;5980951;23;20217;-81
2021/12/19 09:22:26;;;;;;;157.73;17.73;;;;;;;-0.17;100.00;96812.91;5979141;23;20186;-81
2021/12/19 09:24:51;;;;;;;20.20;6.00;;;;;;;-0.07;100.00;96801.50;5981204;23;20239;-82
2021/12/19 09:27:17;;;;;;;251.17;15.00;;;;;;;-0.18;100.00;96811.22;6004829;23;20177;-79
2021/12/19 09:29:45;;;;;;;179.57;13.23;;;;;;;-0.18;100.00;96809.50;5999789;23;20510;-81
2021/12/19 09:32:10;;;;;;;131.37;9.13;;;;;;;-0.17;100.00;96818.84;6000806;23;20143;-80
2021/12/19 09:34:36;;;;;;;93.53;7.13;;;;;;;-0.30;100.00;96833.72;6001609;23;20651;-80
2021/12/19 09:37:03;;;;;;;306.37;17.53;;;;;;;-0.25;100.00;96830.19;6004294;23;20158;-81
2021/12/19 09:39:30;;;;;;;81.77;7.57;;;;;;;-0.12;100.00;96823.78;5980894;23;20604;-84
2021/12/19 09:42:06;;;;;;;102.53;9.67;;;;;;;-0.05;100.00;96820.97;6003663;23;20190;-81
2021/12/19 09:44:31;;;;;;;177.73;13.60;;;;;;;0.02;100.00;96818.22;6005109;23;20694;-83
2021/12/19 09:46:57;;;;;;;50.53;5.50;;;;;;;0.02;100.00;96818.22;5980007;23;20163;-84
2021/12/19 09:49:22;;;;;;;272.80;17.93;;;;;;;-0.02;100.00;96823.41;5980454;23;20169;-83
2021/12/19 09:51:50;;;;;;;128.33;10.47;;;;;;;-0.08;100.00;96810.03;6002875;23;20173;-82
2021/12/19 09:54:16;;;;;;;12.93;9.17;;;;;;;0.09;100.00;96805.19;5979707;23;20204;-81
2021/12/19 09:56:42;;;;;;;20.70;11.13;;;;;;;0.20;100.00;96797.97;5979498;23;20162;-81
2021/12/19 09:59:19;;;;;;;39.27;7.07;;;;;;;0.20;100.00;96794.59;6003538;23;20173;-82
2021/12/19 10:01:45;;;;;;;128.43;13.93;;;;;;;0.13;100.00;96783.75;5978967;23;20188;-83
2021/12/19 10:04:35;;;;;;;136.60;10.17;;;;;;;0.15;100.00;96784.50;6003343;23;20205;-81
2021/12/19 10:07:18;;;;;;;209.00;13.73;;;;;;;0.13;100.00;96788.03;6005046;23;20193;-83
2021/12/19 10:10:11;;;;;;;232.93;14.23;;;;;;;0.10;100.00;96776.19;6003686;23;20476;-81
2021/12/19 10:12:48;;;;;;;406.07;27.33;;;;;;;-0.10;100.00;96781.16;6002969;23;20196;-82
2021/12/19 10:15:18;;;;;;;87.50;9.47;;;;;;;0.11;100.00;96782.13;5982054;23;20199;-83
2021/12/19 10:17:45;;;;;;;331.70;19.37;;;;;;;0.00;100.00;96779.97;6003534;23;20170;-83
2021/12/19 10:20:13;;;;;;;153.77;12.37;;;;;;;0.09;100.00;96771.97;5980247;23;20173;-82
2021/12/19 10:22:45;;;;;;;16.77;4.90;;;;;;;0.20;100.00;96767.31;5979323;23;20277;-82
2021/12/19 10:25:16;;;;;;;23.57;5.63;;;;;;;0.34;100.00;96763.41;6003652;23;20178;-82
2021/12/19 10:27:50;;;;;;;20.40;5.23;;;;;;;0.44;100.00;96765.59;6004048;23;20177;-81
2021/12/19 10:30:30;;;;;;;114.67;8.13;;;;;;;0.42;100.00;96766.53;5980130;23;20250;-81
2021/12/19 10:33:08;;;;;;;39.70;6.23;;;;;;;0.38;100.00;96754.75;6002379;23;20185;-81
2021/12/19 10:35:50;;;;;;;246.37;18.87;;;;;;;0.13;100.00;96747.97;5979680;23;20260;-83
2021/12/19 10:38:19;;;;;;;224.23;13.03;;;;;;;0.26;100.00;96741.53;5979968;23;20165;-81
2021/12/19 10:40:49;;;;;;;99.33;8.67;;;;;;;0.30;100.00;96742.28;5979602;23;20174;-82
2021/12/19 10:43:17;;;;;;;145.67;11.37;;;;;;;0.43;100.00;96743.47;6004355;23;20593;-84
2021/12/19 10:45:49;;;;;;;345.70;21.90;;;;;;;0.28;100.00;96744.06;6002650;23;20265;-81
2021/12/19 10:48:34;;;;;;;168.00;12.70;;;;;;;0.41;100.00;96731.66;5979805;23;20189;-79
2021/12/19 10:51:07;;;;;;;167.13;14.10;;;;;;;0.48;100.00;96730.53;5980441;23;20166;-81
2021/12/19 10:53:40;;;;;;;153.63;18.20;;;;;;;0.45;100.00;96728.94;5980000;23;20515;-82
2021/12/19 10:56:08;;;;;;;32.03;10.20;;;;;;;0.48;100.00;96727.97;6003245;23;20268;-82
2021/12/19 10:58:40;;;;;;;125.50;13.93;;;;;;;0.46;100.00;96734.88;6026802;23;20198;-80
2021/12/19 11:01:08;;;;;;;63.67;9.13;;;;;;;0.51;100.00;96723.56;5979256;23;20656;-81
2021/12/19 11:03:38;;;;;;;157.50;13.13;;;;;;;0.46;100.00;96711.88;6026867;23;20174;-82
2021/12/19 11:06:45;;;;;;;322.47;41.33;;;;;;;0.30;100.00;96705.66;6004405;23;20178;-82
2021/12/19 11:09:15;;;;;;;236.70;28.87;;;;;;;0.33;100.00;96696.16;5989822;23;20548;-82
2021/12/19 11:11:54;;;;;;;258.47;20.53;;;;;;;0.31;100.00;96692.00;6002810;23;20166;-81
2021/12/19 11:14:37;;;;;;;95.23;13.80;;;;;;;0.33;100.00;96685.94;5979866;23;20170;-81
2021/12/19 11:17:09;;;;;;;287.10;30.20;;;;;;;0.37;100.00;96691.78;6026921;23;20229;-81
2021/12/19 11:19:35;;;;;;;269.40;20.40;;;;;;;0.28;100.00;96683.56;5980321;23;20170;-82
2021/12/19 11:22:00;;;;;;;35.90;8.63;;;;;;;0.40;100.00;96668.66;5979070;23;20254;-83
2021/12/19 11:24:26;;;;;;;288.13;21.30;;;;;;;0.38;100.00;96678.09;5979260;23;20272;-81
2021/12/19 11:26:55;;;;;;;303.27;19.00;;;;;;;0.46;100.00;96656.47;5979578;23;20178;-82
2021/12/19 11:29:20;;;;;;;588.83;37.63;;;;;;;0.33;100.00;96659.53;6003180;23;20528;-81
2021/12/19 11:31:50;;;;;;;518.63;32.33;;;;;;;0.32;100.00;96663.00;6002042;23;20191;-81
2021/12/19 11:34:22;;;;;;;429.50;26.93;;;;;;;0.30;100.00;96657.94;6002973;23;20593;-82
2021/12/19 11:37:07;;;;;;;365.33;26.13;;;;;;;0.31;100.00;96662.16;6002315;23;20167;-81
2021/12/19 11:39:39;;;;;;;229.70;16.70;;;;;;;0.31;100.00;96661.34;6002635;23;20608;-80
2021/12/19 11:42:16;;;;;;;593.27;36.40;;;;;;;0.16;100.00;96655.91;6001699;23;20489;-82
2021/12/19 11:47:38;;;;;;;485.70;29.20;;;;;;;0.16;100.00;96643.13;6023420;23;20672;-82
2021/12/19 11:50:18;;;;;;;549.03;37.73;;;;;;;0.13;100.00;96643.25;6030683;23;20178;-81
2021/12/19 11:52:44;;;;;;;218.50;17.07;;;;;;;0.30;100.00;96623.91;6029891;23;20241;-82
2021/12/19 11:55:15;;;;;;;273.53;21.03;;;;;;;0.21;100.00;96622.53;6007325;23;20214;-82
2021/12/19 11:57:42;;;;;;;381.90;27.33;;;;;;;0.18;100.00;96622.66;6030990;23;20170;-82
2021/12/19 12:00:31;;;;;;;526.17;33.13;;;;;;;0.15;100.00;96610.81;6032423;23;20746;-82
2021/12/19 12:03:11;;;;;;;342.97;23.27;;;;;;;0.14;100.00;96609.16;6007716;23;20181;-82
2021/12/19 12:05:37;;;;;;;224.00;18.07;;;;;;;0.15;100.00;96598.03;6031907;23;20189;-82
2021/12/19 12:08:05;;;;;;;392.20;23.03;;;;;;;0.14;100.00;96595.56;6007623;23;20743;-82
2021/12/19 12:10:56;;;;;;;48.13;8.90;;;;;;;0.26;100.00;96592.50;6032757;23;20162;-82
2021/12/19 12:13:21;;;;;;;113.17;11.37;;;;;;;0.19;100.00;96594.50;6035328;23;20213;-82
2021/12/19 12:15:49;;;;;;;443.93;26.57;;;;;;;0.14;100.00;96588.72;6034301;23;20208;-82
2021/12/19 12:18:35;;;;;;;250.63;16.77;;;;;;;0.16;100.00;96583.56;6009324;23;20169;-83
2021/12/19 12:21:24;;;;;;;308.13;19.73;;;;;;;0.04;100.00;96584.03;6032179;23;20154;-83
2021/12/19 12:23:54;;;;;;;316.60;20.33;;;;;;;0.01;100.00;96579.88;6032197;23;20168;-83
2021/12/19 12:26:39;;;;;;;146.47;16.17;;;;;;;0.06;100.00;96570.31;6032107;23;20263;-82
2021/12/19 12:29:06;;;;;;;265.83;18.37;;;;;;;0.06;100.00;96562.63;6010857;23;20156;-80
2021/12/19 12:31:31;;;;;;;283.60;22.20;;;;;;;0.10;100.00;96560.81;6008931;23;20167;-83
2021/12/19 12:34:02;;;;;;;333.37;25.67;;;;;;;0.14;100.00;96559.78;6012379;23;20185;-87
2021/12/19 12:36:28;;;;;;;147.57;14.83;;;;;;;0.22;100.00;96548.38;6012384;23;20186;-82
2021/12/19 12:38:54;;;;;;;50.57;11.87;;;;;;;0.37;100.00;96543.56;6031490;23;20168;-81
2021/12/19 12:44:22;;;;;;;311.20;21.43;;;;;;;0.32;100.00;96535.25;6032162;23;20550;-83
2021/12/19 12:46:52;;;;;;;444.83;29.03;;;;;;;0.22;100.00;96545.84;6009548;23;20165;-87
2021/12/19 12:49:34;;;;;;;73.63;8.73;;;;;;;0.30;100.00;96542.16;6011251;23;20224;-86
2021/12/19 12:52:01;;;;;;;321.47;23.67;;;;;;;0.21;100.00;96536.50;6012137;23;20224;-85
2021/12/19 12:54:44;;;;;;;188.03;12.63;;;;;;;0.20;100.00;96529.75;6011996;23;20271;-83
2021/12/19 13:00:38;;;;;;;132.67;12.13;;;;;;;0.09;100.00;96521.69;6053209;23;20171;-83
2021/12/19 13:03:30;;;;;;;197.77;13.97;;;;;;;0.09;100.00;96513.16;6034982;23;20198;-85
2021/12/19 13:06:04;;;;;;;261.07;18.67;;;;;;;0.08;100.00;96514.06;6014114;23;20605;-84
2021/12/19 13:08:35;;;;;;;162.83;13.10;;;;;;;0.14;100.00;96513.81;6034759;23;20661;-83
2021/12/19 13:11:14;;;;;;;90.67;9.43;;;;;;;0.15;100.00;96507.81;6159779;23;20504;-84
2021/12/19 13:14:02;;;;;;;138.67;12.87;;;;;;;0.05;100.00;96494.59;6034068;23;20161;-85
2021/12/19 13:16:30;;;;;;;308.30;19.73;;;;;;;0.07;100.00;96485.13;6012073;23;20285;-83
2021/12/19 13:22:15;;;;;;;211.47;17.37;;;;;;;-0.04;100.00;96480.44;6034102;23;20327;-84
2021/12/19 13:24:41;;;;;;;401.40;27.80;;;;;;;-0.06;100.00;96471.19;6033868;23;20254;-84
2021/12/19 13:27:29;;;;;;;247.37;17.23;;;;;;;-0.04;100.00;96467.69;6034777;23;20180;-89
2021/12/19 13:30:06;;;;;;;400.40;27.77;;;;;;;-0.09;100.00;96468.75;6009757;23;20166;-84
2021/12/19 13:32:40;;;;;;;323.40;20.87;;;;;;;-0.02;100.00;96468.44;6157870;23;20165;-85
2021/12/19 13:35:32;;;;;;;215.07;15.83;;;;;;;-0.02;100.00;96471.00;6009443;23;20272;-86
2021/12/19 13:38:01;;;;;;;219.63;17.93;;;;;;;0.09;100.00;96467.19;6033463;23;20158;-81
2021/12/19 13:40:29;;;;;;;273.50;20.03;;;;;;;-0.05;100.00;96454.97;6032307;23;20169;-83
2021/12/19 13:42:58;;;;;;;79.07;10.57;;;;;;;0.07;100.00;96456.22;6034087;23;20193;-85
2021/12/19 13:45:30;;;;;;;248.53;18.47;;;;;;;0.02;100.00;96460.69;6056695;23;20185;-80
2021/12/19 13:47:57;;;;;;;185.27;17.40;;;;;;;0.04;100.00;96462.28;6057209;23;20165;-81
2021/12/19 13:58:26;;;;;;;;;;;;;;;;;;;;;
2021/12/19 14:04:58;;;;;;;552.73;38.67;;;;;;;-0.06;100.00;96438.00;6069467;23;20686;-86
2021/12/19 14:10:32;;;;;;;472.53;31.80;;;;;;;-0.33;100.00;96439.94;6069541;23;20172;-84
2021/12/19 14:16:24;;;;;;;592.73;37.70;;;;;;;-0.39;100.00;96441.00;6063324;23;20275;-86
2021/12/19 14:18:57;;;;;;;132.73;13.00;;;;;;;-0.27;100.00;96434.56;6042685;23;20226;-85
2021/12/19 14:21:48;;;;;;;630.40;40.63;;;;;;;-0.40;100.00;96441.88;6067043;23;20185;-86
2021/12/19 14:24:38;;;;;;;743.40;45.23;;;;;;;-0.55;100.00;96434.81;6044168;23;20763;-87
2021/12/19 14:27:24;;;;;;;473.23;32.47;;;;;;;-0.50;100.00;96437.19;6067575;23;20212;-87
2021/12/19 14:29:58;;;;;;;266.27;18.90;;;;;;;-0.47;100.00;96432.78;6041631;23;20198;-87
2021/12/19 14:32:30;;;;;;;492.90;34.77;;;;;;;-0.52;100.00;96431.34;6062458;23;20168;-87
2021/12/19 14:35:23;;;;;;;285.70;17.00;;;;;;;-0.58;100.00;96434.94;6023581;23;20187;-87
2021/12/19 14:38:04;;;;;;;172.30;15.33;;;;;;;-0.51;100.00;96438.91;6020866;23;20188;-85
2021/12/19 14:40:39;;;;;;;203.40;16.10;;;;;;;-0.54;100.00;96431.38;6039349;23;20492;-86
2021/12/19 14:43:12;;;;;;;405.37;28.07;;;;;;;-0.48;100.00;96437.97;6058892;23;20174;-87
2021/12/19 14:45:51;;;;;;;492.10;31.40;;;;;;;-0.53;100.00;96439.84;6036508;23;20196;-86
2021/12/19 14:48:21;;;;;;;381.10;27.50;;;;;;;-0.58;100.00;96429.84;6037702;23;20250;-87
2021/12/19 14:51:02;;;;;;;487.87;32.37;;;;;;;-0.67;100.00;96435.28;6011145;23;20193;-86
2021/12/19 14:53:36;;;;;;;351.97;23.47;;;;;;;-0.68;100.00;96433.63;6056176;23;20156;-85
2021/12/19 14:56:22;;;;;;;435.43;29.23;;;;;;;-0.72;100.00;96422.69;6033186;23;20185;-85
2021/12/19 14:58:53;;;;;;;607.30;40.47;;;;;;;-0.74;100.00;96421.91;6008826;23;20160;-87
2021/12/19 15:01:21;;;;;;;248.43;16.77;;;;;;;-0.70;100.00;96417.56;6031842;23;20161;-85
2021/12/19 15:04:00;;;;;;;470.23;29.03;;;;;;;-0.73;100.00;96412.56;6032282;23;20168;-84
2021/12/19 15:06:40;;;;;;;294.93;28.07;;;;;;;-0.78;100.00;96406.81;6033480;23;20267;-88
2021/12/19 15:09:14;;;;;;;245.50;17.53;;;;;;;-0.67;100.00;96407.22;6056336;23;20140;-85
2021/12/19 15:11:49;;;;;;;528.50;33.90;;;;;;;-0.71;100.00;96409.03;6032848;23;20182;-87
2021/12/19 15:14:17;;;;;;;417.17;25.43;;;;;;;-0.89;100.00;96404.63;6009268;23;20168;-85
2021/12/19 15:16:42;;;;;;;488.37;29.37;;;;;;;-0.83;100.00;96399.31;6032589;23;20165;-83
2021/12/19 15:19:08;;;;;;;473.43;29.50;;;;;;;-0.92;100.00;96405.59;6033927;23;20168;-83
2021/12/19 15:21:34;;;;;;;466.93;27.20;;;;;;;-0.87;100.00;96406.25;6032601;23;20199;-79
2021/12/19 15:24:00;;;;;;;507.40;29.20;;;;;;;-0.99;100.00;96401.59;6009375;23;20249;-81
2021/12/19 15:26:26;;;;;;;646.80;40.43;;;;;;;-1.00;100.00;96406.75;6032568;23;20193;-79
2021/12/19 15:28:52;;;;;;;224.33;15.83;;;;;;;-0.95;100.00;96394.69;6031528;23;20570;-81
2021/12/19 15:31:20;;;;;;;453.77;32.90;;;;;;;-0.97;100.00;96393.88;6032192;23;20180;-80
2021/12/19 15:33:47;;;;;;;515.53;34.30;;;;;;;-1.05;100.00;96398.47;6009162;23;20164;-80
2021/12/19 15:36:13;;;;;;;361.63;25.03;;;;;;;-0.95;100.00;96397.25;6032788;23;20577;-79
2021/12/19 15:38:38;;;;;;;221.73;15.53;;;;;;;-0.93;100.00;96398.84;6012986;23;20587;-81
2021/12/19 15:41:04;;;;;;;408.17;28.00;;;;;;;-0.98;100.00;96394.78;6038099;23;20195;-80
2021/12/19 15:43:30;;;;;;;425.53;25.83;;;;;;;-1.01;100.00;96390.63;6036517;23;20161;-79
2021/12/19 15:48:30;;;;;;;621.93;40.67;;;;;;;-1.05;100.00;96395.91;6006248;23;21060;-83
2021/12/19 16:25:38;;;;;;;447.43;27.90;;;;;;;-1.22;100.00;96386.34;6136079;23;20262;-86
2021/12/19 16:28:04;;;;;;;444.40;27.73;;;;;;;-1.21;100.00;96383.72;6102421;23;20203;-81
2021/12/19 16:31:31;;;;;;;695.77;43.37;;;;;;;-1.31;100.00;96395.16;6107125;23;20162;-88
2021/12/19 18:52:10;;;;;;;50.20;17.43;;;;;;;-0.14;100.00;96359.16;6008165;23;20157;-85
2021/12/19 19:13:19;;;;;;;38.30;17.07;;;;;;;0.02;100.00;96367.03;5686772;25;20183;-84
2021/12/19 19:19:20;;;;;;;36.60;18.60;;;;;;;0.08;100.00;96364.19;5712829;25;20223;-77
2021/12/19 19:21:49;;;;;;;42.70;19.33;;;;;;;0.07;100.00;96359.16;5692323;25;20193;-84
2021/12/19 20:52:47;;;;;;;39.70;20.63;;;;;;;0.51;100.00;96373.44;5887481;22;9060575;-86
2021/12/19 20:55:13;;;;;;;40.13;20.27;;;;;;;0.57;100.00;96374.91;6251691;22;20216;-86
2021/12/19 20:57:38;;;;;;;45.87;22.10;;;;;;;0.54;100.00;96382.72;6251434;22;20155;-87
2021/12/19 21:00:06;;;;;;;41.00;19.20;;;;;;;0.56;100.00;96386.84;6252284;22;20156;-87
2021/12/19 21:02:31;;;;;;;44.80;20.30;;;;;;;0.48;100.00;96373.56;6276240;22;20160;-88
2021/12/19 21:04:57;;;;;;;41.80;19.90;;;;;;;0.53;100.00;96375.91;6251206;22;20202;-87
2021/12/19 21:07:22;;;;;;;37.20;18.90;;;;;;;0.62;100.00;96385.75;6251368;22;20163;-87
2021/12/19 21:09:48;;;;;;;38.50;18.70;;;;;;;0.58;100.00;96384.22;6250952;22;20631;-87
2021/12/19 21:12:19;;;;;;;34.90;19.10;;;;;;;0.58;100.00;96384.22;6250415;22;20470;-87
2021/12/19 21:20:00;;;;;;;39.93;19.43;;;;;;;0.58;100.00;96379.09;6276833;22;20493;-87
2021/12/19 21:22:25;;;;;;;34.07;19.53;;;;;;;0.59;100.00;96383.31;6253881;22;20181;-87
2021/12/19 21:24:51;;;;;;;42.57;21.53;;;;;;;0.57;100.00;96370.63;6251626;22;20184;-87
2021/12/19 21:27:20;;;;;;;40.13;21.63;;;;;;;0.57;100.00;96368.06;6251770;22;20559;-87
2021/12/19 21:29:47;;;;;;;41.37;21.47;;;;;;;0.58;100.00;96381.66;6250715;22;20177;-87
2021/12/19 21:32:15;;;;;;;51.60;25.37;;;;;;;0.53;100.00;96381.88;6250116;22;20176;-87
2021/12/19 21:34:44;;;;;;;42.07;21.13;;;;;;;0.55;100.00;96380.09;6255238;22;20211;-88
2021/12/19 21:39:57;;;;;;;48.63;21.70;;;;;;;0.59;100.00;96374.81;6277207;22;20144;-87
2021/12/19 21:42:23;;;;;;;44.13;22.00;;;;;;;0.61;100.00;96376.41;6250486;22;20175;-88
2021/12/19 21:44:48;;;;;;;45.87;21.37;;;;;;;0.64;100.00;96367.81;6252046;22;20176;-87
2021/12/19 21:47:14;;;;;;;43.07;21.30;;;;;;;0.63;100.00;96372.09;6251055;22;20160;-87
2021/12/19 21:49:39;;;;;;;37.50;19.03;;;;;;;0.66;100.00;96379.59;6251812;22;20179;-87
2021/12/19 21:52:05;;;;;;;40.37;19.80;;;;;;;0.66;100.00;96371.09;6250771;22;20255;-87
2021/12/19 21:54:31;;;;;;;37.13;19.40;;;;;;;0.66;100.00;96376.22;6250553;22;20259;-87
2021/12/19 21:56:56;;;;;;;41.63;21.43;;;;;;;0.65;100.00;96375.41;6250339;22;20205;-88
2021/12/19 21:59:22;;;;;;;35.67;18.23;;;;;;;0.74;100.00;96375.00;6250663;22;20215;-85
2021/12/19 22:01:47;;;;;;;32.80;19.37;;;;;;;0.69;100.00;96363.28;6275400;22;20161;-88
2021/12/19 22:04:12;;;;;;;36.87;19.03;;;;;;;0.70;100.00;96372.63;6276187;22;20462;-86
2021/12/19 22:06:37;;;;;;;35.53;18.07;;;;;;;0.66;100.00;96366.81;6250077;22;20587;-87
2021/12/19 22:09:05;;;;;;;38.13;20.67;;;;;;;0.70;100.00;96350.44;6250682;22;20179;-86
2021/12/19 22:11:34;;;;;;;39.27;20.73;;;;;;;0.72;100.00;96360.63;6250242;22;20156;-87